sensor_id;sensor_type;location;lat;lon;timestamp;P1;durP1;ratioP1;P2;durP2;ratioP2
69414;SDS011;56608;43.530;-5.652;2023-04-24T00:00:04;11.20;;;2.83;;
69414;SDS011;56608;43.530;-5.652;2023-04-24T00:01:06;9.50;;;2.20;;
69414;SDS011;56608;43.530;-5.652;2023-04-24T00:02:08;9.45;;;2.37;;
69414;SDS011;56608;43.530;-5.652;2023-04-24T00:03:11;9.70;;;2.65;;
69414;SDS011;56608;43.530;-5.652;2023-04-24T00:04:14;10.00;;;2.50;;
69414;SDS011;56608;43.530;-5.652;2023-04-24T00:05:17;11.60;;;2.63;;
69414;SDS011;56608;43.530;-5.652;2023-04-24T00:06:18;7.65;;;2.17;;
69414;SDS011;56608;43.530;-5.652;2023-04-24T00:07:20;10.65;;;2.33;;
69414;SDS011;56608;43.530;-5.652;2023-04-24T00:08:21;7.15;;;2.35;;
69414;SDS011;56608;43.530;-5.652;2023-04-24T00:09:24;8.35;;;2.20;;
69414;SDS011;56608;43.530;-5.652;2023-04-24T00:10:26;9.27;;;3.00;;
69414;SDS011;56608;43.530;-5.652;2023-04-24T00:11:27;6.40;;;2.08;;
69414;SDS011;56608;43.530;-5.652;2023-04-24T00:13:30;7.47;;;2.47;;
69414;SDS011;56608;43.530;-5.652;2023-04-24T00:14:31;10.25;;;2.20;;
69414;SDS011;56608;43.530;-5.652;2023-04-24T00:15:32;11.83;;;2.57;;
69414;SDS011;56608;43.530;-5.652;2023-04-24T00:16:34;11.20;;;2.50;;
69414;SDS011;56608;43.530;-5.652;2023-04-24T00:17:35;10.45;;;2.40;;
69414;SDS011;56608;43.530;-5.652;2023-04-24T00:18:37;7.33;;;1.80;;
69414;SDS011;56608;43.530;-5.652;2023-04-24T00:19:38;12.25;;;3.00;;
69414;SDS011;56608;43.530;-5.652;2023-04-24T00:20:40;9.85;;;2.03;;
69414;SDS011;56608;43.530;-5.652;2023-04-24T00:21:41;11.95;;;2.40;;
69414;SDS011;56608;43.530;-5.652;2023-04-24T00:22:42;9.52;;;2.20;;
69414;SDS011;56608;43.530;-5.652;2023-04-24T00:23:44;12.00;;;2.50;;
69414;SDS011;56608;43.530;-5.652;2023-04-24T00:24:45;11.88;;;2.20;;
69414;SDS011;56608;43.530;-5.652;2023-04-24T00:25:47;12.05;;;2.20;;
69414;SDS011;56608;43.530;-5.652;2023-04-24T00:26:48;10.45;;;2.12;;
69414;SDS011;56608;43.530;-5.652;2023-04-24T00:27:48;12.40;;;2.25;;
69414;SDS011;56608;43.530;-5.652;2023-04-24T00:28:50;9.95;;;1.95;;
69414;SDS011;56608;43.530;-5.652;2023-04-24T00:29:52;14.80;;;2.78;;
69414;SDS011;56608;43.530;-5.652;2023-04-24T00:30:53;11.20;;;2.10;;
69414;SDS011;56608;43.530;-5.652;2023-04-24T00:31:55;10.80;;;2.15;;
69414;SDS011;56608;43.530;-5.652;2023-04-24T00:32:55;10.60;;;2.30;;
69414;SDS011;56608;43.530;-5.652;2023-04-24T00:33:57;10.70;;;2.20;;
69414;SDS011;56608;43.530;-5.652;2023-04-24T00:34:59;11.60;;;2.72;;
69414;SDS011;56608;43.530;-5.652;2023-04-24T00:36:00;12.30;;;2.20;;
69414;SDS011;56608;43.530;-5.652;2023-04-24T00:37:01;10.93;;;2.50;;
69414;SDS011;56608;43.530;-5.652;2023-04-24T00:38:03;12.20;;;2.45;;
69414;SDS011;56608;43.530;-5.652;2023-04-24T00:39:04;10.98;;;2.17;;
69414;SDS011;56608;43.530;-5.652;2023-04-24T00:40:06;12.00;;;2.28;;
69414;SDS011;56608;43.530;-5.652;2023-04-24T00:42:08;10.65;;;2.15;;
69414;SDS011;56608;43.530;-5.652;2023-04-24T00:43:10;10.30;;;1.70;;
69414;SDS011;56608;43.530;-5.652;2023-04-24T00:44:12;12.70;;;2.45;;
69414;SDS011;56608;43.530;-5.652;2023-04-24T00:46:15;13.52;;;2.50;;
69414;SDS011;56608;43.530;-5.652;2023-04-24T00:47:17;7.50;;;1.80;;
69414;SDS011;56608;43.530;-5.652;2023-04-24T00:48:20;10.20;;;2.23;;
69414;SDS011;56608;43.530;-5.652;2023-04-24T00:49:22;6.45;;;1.80;;
69414;SDS011;56608;43.530;-5.652;2023-04-24T00:50:23;9.60;;;1.90;;
69414;SDS011;56608;43.530;-5.652;2023-04-24T00:51:25;8.00;;;1.80;;
69414;SDS011;56608;43.530;-5.652;2023-04-24T00:52:28;8.05;;;2.10;;
69414;SDS011;56608;43.530;-5.652;2023-04-24T00:53:32;8.55;;;2.10;;
69414;SDS011;56608;43.530;-5.652;2023-04-24T00:55:34;12.70;;;2.35;;
69414;SDS011;56608;43.530;-5.652;2023-04-24T00:56:38;9.10;;;1.95;;
69414;SDS011;56608;43.530;-5.652;2023-04-24T00:57:40;7.45;;;1.45;;
69414;SDS011;56608;43.530;-5.652;2023-04-24T00:58:42;7.25;;;2.00;;
69414;SDS011;56608;43.530;-5.652;2023-04-24T00:59:44;10.43;;;2.00;;
69414;SDS011;56608;43.530;-5.652;2023-04-24T01:00:46;8.50;;;1.90;;
69414;SDS011;56608;43.530;-5.652;2023-04-24T01:01:49;10.35;;;2.10;;
69414;SDS011;56608;43.530;-5.652;2023-04-24T01:02:51;6.20;;;2.10;;
69414;SDS011;56608;43.530;-5.652;2023-04-24T01:03:54;9.10;;;2.25;;
69414;SDS011;56608;43.530;-5.652;2023-04-24T01:04:56;13.25;;;2.70;;
69414;SDS011;56608;43.530;-5.652;2023-04-24T01:05:58;12.13;;;2.70;;
69414;SDS011;56608;43.530;-5.652;2023-04-24T01:07:00;6.70;;;1.90;;
69414;SDS011;56608;43.530;-5.652;2023-04-24T01:09:02;10.95;;;2.20;;
69414;SDS011;56608;43.530;-5.652;2023-04-24T01:10:05;10.05;;;2.10;;
69414;SDS011;56608;43.530;-5.652;2023-04-24T01:11:07;7.97;;;1.93;;
69414;SDS011;56608;43.530;-5.652;2023-04-24T01:12:09;10.32;;;1.90;;
69414;SDS011;56608;43.530;-5.652;2023-04-24T01:14:10;8.05;;;1.95;;
69414;SDS011;56608;43.530;-5.652;2023-04-24T01:15:12;9.60;;;1.60;;
69414;SDS011;56608;43.530;-5.652;2023-04-24T01:16:16;8.10;;;2.10;;
69414;SDS011;56608;43.530;-5.652;2023-04-24T01:17:18;7.63;;;1.97;;
69414;SDS011;56608;43.530;-5.652;2023-04-24T01:18:19;9.15;;;2.08;;
69414;SDS011;56608;43.530;-5.652;2023-04-24T01:19:22;8.50;;;1.70;;
69414;SDS011;56608;43.530;-5.652;2023-04-24T01:20:23;7.60;;;1.70;;
69414;SDS011;56608;43.530;-5.652;2023-04-24T01:21:27;11.60;;;2.00;;
69414;SDS011;56608;43.530;-5.652;2023-04-24T01:22:33;8.05;;;1.95;;
69414;SDS011;56608;43.530;-5.652;2023-04-24T01:23:35;10.20;;;2.30;;
69414;SDS011;56608;43.530;-5.652;2023-04-24T01:24:36;9.63;;;1.92;;
69414;SDS011;56608;43.530;-5.652;2023-04-24T01:25:38;10.70;;;1.95;;
69414;SDS011;56608;43.530;-5.652;2023-04-24T01:26:40;6.10;;;1.70;;
69414;SDS011;56608;43.530;-5.652;2023-04-24T01:27:41;9.30;;;2.20;;
69414;SDS011;56608;43.530;-5.652;2023-04-24T01:28:43;10.30;;;2.30;;
69414;SDS011;56608;43.530;-5.652;2023-04-24T01:29:44;5.90;;;2.10;;
69414;SDS011;56608;43.530;-5.652;2023-04-24T01:30:46;7.40;;;1.98;;
69414;SDS011;56608;43.530;-5.652;2023-04-24T01:31:47;6.50;;;1.70;;
69414;SDS011;56608;43.530;-5.652;2023-04-24T01:32:48;9.07;;;2.55;;
69414;SDS011;56608;43.530;-5.652;2023-04-24T01:34:51;6.50;;;2.10;;
69414;SDS011;56608;43.530;-5.652;2023-04-24T01:35:52;5.05;;;1.70;;
69414;SDS011;56608;43.530;-5.652;2023-04-24T01:36:54;7.35;;;2.10;;
69414;SDS011;56608;43.530;-5.652;2023-04-24T01:37:57;9.05;;;1.90;;
69414;SDS011;56608;43.530;-5.652;2023-04-24T01:38:58;8.85;;;1.95;;
69414;SDS011;56608;43.530;-5.652;2023-04-24T01:39:59;8.50;;;2.00;;
69414;SDS011;56608;43.530;-5.652;2023-04-24T01:41:01;7.95;;;2.20;;
69414;SDS011;56608;43.530;-5.652;2023-04-24T01:42:04;8.20;;;1.60;;
69414;SDS011;56608;43.530;-5.652;2023-04-24T01:43:06;6.55;;;2.15;;
69414;SDS011;56608;43.530;-5.652;2023-04-24T01:44:08;6.80;;;1.60;;
69414;SDS011;56608;43.530;-5.652;2023-04-24T01:45:10;5.65;;;1.62;;
69414;SDS011;56608;43.530;-5.652;2023-04-24T01:46:13;5.80;;;1.95;;
69414;SDS011;56608;43.530;-5.652;2023-04-24T01:47:14;8.55;;;1.98;;
69414;SDS011;56608;43.530;-5.652;2023-04-24T01:48:16;5.97;;;1.83;;
69414;SDS011;56608;43.530;-5.652;2023-04-24T01:49:17;6.57;;;1.73;;
69414;SDS011;56608;43.530;-5.652;2023-04-24T01:50:19;4.68;;;1.40;;
69414;SDS011;56608;43.530;-5.652;2023-04-24T01:51:20;6.77;;;1.67;;
69414;SDS011;56608;43.530;-5.652;2023-04-24T01:52:22;6.65;;;1.75;;
69414;SDS011;56608;43.530;-5.652;2023-04-24T01:53:23;6.80;;;1.70;;
69414;SDS011;56608;43.530;-5.652;2023-04-24T01:54:25;6.40;;;1.67;;
69414;SDS011;56608;43.530;-5.652;2023-04-24T01:55:26;6.32;;;1.70;;
69414;SDS011;56608;43.530;-5.652;2023-04-24T01:56:31;6.35;;;1.60;;
69414;SDS011;56608;43.530;-5.652;2023-04-24T01:57:34;7.25;;;1.95;;
69414;SDS011;56608;43.530;-5.652;2023-04-24T01:59:37;7.80;;;2.05;;
69414;SDS011;56608;43.530;-5.652;2023-04-24T02:00:38;5.22;;;1.73;;
69414;SDS011;56608;43.530;-5.652;2023-04-24T02:01:40;7.03;;;1.97;;
69414;SDS011;56608;43.530;-5.652;2023-04-24T02:02:41;7.85;;;1.70;;
69414;SDS011;56608;43.530;-5.652;2023-04-24T02:03:43;6.50;;;1.45;;
69414;SDS011;56608;43.530;-5.652;2023-04-24T02:04:44;6.85;;;1.80;;
69414;SDS011;56608;43.530;-5.652;2023-04-24T02:05:46;6.10;;;1.70;;
69414;SDS011;56608;43.530;-5.652;2023-04-24T02:06:47;7.10;;;1.85;;
69414;SDS011;56608;43.530;-5.652;2023-04-24T02:07:49;5.40;;;1.65;;
69414;SDS011;56608;43.530;-5.652;2023-04-24T02:08:50;6.18;;;1.65;;
69414;SDS011;56608;43.530;-5.652;2023-04-24T02:09:51;4.50;;;1.90;;
69414;SDS011;56608;43.530;-5.652;2023-04-24T02:10:53;7.70;;;1.67;;
69414;SDS011;56608;43.530;-5.652;2023-04-24T02:11:54;11.32;;;1.90;;
69414;SDS011;56608;43.530;-5.652;2023-04-24T02:12:57;4.30;;;1.70;;
69414;SDS011;56608;43.530;-5.652;2023-04-24T02:14:00;6.67;;;1.70;;
69414;SDS011;56608;43.530;-5.652;2023-04-24T02:15:01;4.72;;;1.60;;
69414;SDS011;56608;43.530;-5.652;2023-04-24T02:16:03;8.27;;;2.17;;
69414;SDS011;56608;43.530;-5.652;2023-04-24T02:17:05;6.20;;;1.70;;
69414;SDS011;56608;43.530;-5.652;2023-04-24T02:18:07;5.20;;;1.45;;
69414;SDS011;56608;43.530;-5.652;2023-04-24T02:19:09;8.73;;;1.85;;
69414;SDS011;56608;43.530;-5.652;2023-04-24T02:20:10;5.97;;;1.50;;
69414;SDS011;56608;43.530;-5.652;2023-04-24T02:21:12;4.90;;;1.30;;
69414;SDS011;56608;43.530;-5.652;2023-04-24T02:22:13;6.10;;;1.45;;
69414;SDS011;56608;43.530;-5.652;2023-04-24T02:23:15;4.72;;;1.90;;
69414;SDS011;56608;43.530;-5.652;2023-04-24T02:24:16;3.85;;;1.50;;
69414;SDS011;56608;43.530;-5.652;2023-04-24T02:25:18;4.62;;;1.70;;
69414;SDS011;56608;43.530;-5.652;2023-04-24T02:26:19;3.30;;;1.60;;
69414;SDS011;56608;43.530;-5.652;2023-04-24T02:27:20;4.50;;;1.60;;
69414;SDS011;56608;43.530;-5.652;2023-04-24T02:28:22;9.55;;;1.75;;
69414;SDS011;56608;43.530;-5.652;2023-04-24T02:29:23;6.25;;;1.65;;
69414;SDS011;56608;43.530;-5.652;2023-04-24T02:30:25;5.35;;;1.65;;
69414;SDS011;56608;43.530;-5.652;2023-04-24T02:31:26;7.75;;;1.55;;
69414;SDS011;56608;43.530;-5.652;2023-04-24T02:32:28;6.15;;;1.85;;
69414;SDS011;56608;43.530;-5.652;2023-04-24T02:33:29;4.75;;;1.55;;
69414;SDS011;56608;43.530;-5.652;2023-04-24T02:34:31;7.60;;;1.98;;
69414;SDS011;56608;43.530;-5.652;2023-04-24T02:35:32;7.62;;;1.80;;
69414;SDS011;56608;43.530;-5.652;2023-04-24T02:36:33;6.80;;;2.00;;
69414;SDS011;56608;43.530;-5.652;2023-04-24T02:37:34;6.10;;;2.10;;
69414;SDS011;56608;43.530;-5.652;2023-04-24T02:38:36;7.90;;;1.60;;
69414;SDS011;56608;43.530;-5.652;2023-04-24T02:39:37;5.65;;;1.58;;
69414;SDS011;56608;43.530;-5.652;2023-04-24T02:40:39;5.80;;;1.50;;
69414;SDS011;56608;43.530;-5.652;2023-04-24T02:41:40;4.80;;;1.30;;
69414;SDS011;56608;43.530;-5.652;2023-04-24T02:42:42;7.25;;;1.92;;
69414;SDS011;56608;43.530;-5.652;2023-04-24T02:43:43;7.03;;;1.92;;
69414;SDS011;56608;43.530;-5.652;2023-04-24T02:44:45;3.67;;;1.60;;
69414;SDS011;56608;43.530;-5.652;2023-04-24T02:45:46;7.85;;;2.00;;
69414;SDS011;56608;43.530;-5.652;2023-04-24T02:46:47;4.75;;;1.52;;
69414;SDS011;56608;43.530;-5.652;2023-04-24T02:47:49;5.33;;;1.60;;
69414;SDS011;56608;43.530;-5.652;2023-04-24T02:48:50;9.25;;;1.75;;
69414;SDS011;56608;43.530;-5.652;2023-04-24T02:49:52;6.35;;;1.75;;
69414;SDS011;56608;43.530;-5.652;2023-04-24T02:50:53;7.20;;;1.80;;
69414;SDS011;56608;43.530;-5.652;2023-04-24T02:51:54;9.30;;;2.25;;
69414;SDS011;56608;43.530;-5.652;2023-04-24T02:52:56;5.68;;;1.60;;
69414;SDS011;56608;43.530;-5.652;2023-04-24T02:53:57;5.10;;;1.60;;
69414;SDS011;56608;43.530;-5.652;2023-04-24T02:54:58;6.37;;;1.77;;
69414;SDS011;56608;43.530;-5.652;2023-04-24T02:56:00;6.10;;;1.83;;
69414;SDS011;56608;43.530;-5.652;2023-04-24T02:57:01;4.87;;;1.30;;
69414;SDS011;56608;43.530;-5.652;2023-04-24T02:58:03;7.00;;;1.70;;
69414;SDS011;56608;43.530;-5.652;2023-04-24T02:59:05;7.43;;;1.90;;
69414;SDS011;56608;43.530;-5.652;2023-04-24T03:00:06;5.57;;;1.90;;
69414;SDS011;56608;43.530;-5.652;2023-04-24T03:01:08;6.55;;;1.60;;
69414;SDS011;56608;43.530;-5.652;2023-04-24T03:02:11;5.50;;;1.85;;
69414;SDS011;56608;43.530;-5.652;2023-04-24T03:03:12;6.30;;;1.95;;
69414;SDS011;56608;43.530;-5.652;2023-04-24T03:04:13;5.90;;;1.80;;
69414;SDS011;56608;43.530;-5.652;2023-04-24T03:05:16;4.85;;;1.60;;
69414;SDS011;56608;43.530;-5.652;2023-04-24T03:06:17;4.50;;;1.80;;
69414;SDS011;56608;43.530;-5.652;2023-04-24T03:07:19;5.93;;;2.00;;
69414;SDS011;56608;43.530;-5.652;2023-04-24T03:08:21;7.50;;;2.00;;
69414;SDS011;56608;43.530;-5.652;2023-04-24T03:09:23;3.50;;;1.70;;
69414;SDS011;56608;43.530;-5.652;2023-04-24T03:10:24;6.18;;;1.58;;
69414;SDS011;56608;43.530;-5.652;2023-04-24T03:11:25;7.93;;;2.12;;
69414;SDS011;56608;43.530;-5.652;2023-04-24T03:12:27;8.77;;;2.15;;
69414;SDS011;56608;43.530;-5.652;2023-04-24T03:13:28;7.30;;;2.00;;
69414;SDS011;56608;43.530;-5.652;2023-04-24T03:15:32;5.80;;;1.70;;
69414;SDS011;56608;43.530;-5.652;2023-04-24T03:16:33;6.15;;;1.92;;
69414;SDS011;56608;43.530;-5.652;2023-04-24T03:17:35;8.30;;;2.45;;
69414;SDS011;56608;43.530;-5.652;2023-04-24T03:18:37;5.50;;;1.80;;
69414;SDS011;56608;43.530;-5.652;2023-04-24T03:19:39;9.13;;;1.95;;
69414;SDS011;56608;43.530;-5.652;2023-04-24T03:20:40;6.32;;;2.03;;
69414;SDS011;56608;43.530;-5.652;2023-04-24T03:21:42;9.35;;;2.30;;
69414;SDS011;56608;43.530;-5.652;2023-04-24T03:22:43;6.55;;;1.77;;
69414;SDS011;56608;43.530;-5.652;2023-04-24T03:23:44;4.50;;;1.75;;
69414;SDS011;56608;43.530;-5.652;2023-04-24T03:24:45;4.27;;;1.60;;
69414;SDS011;56608;43.530;-5.652;2023-04-24T03:25:47;4.60;;;1.95;;
69414;SDS011;56608;43.530;-5.652;2023-04-24T03:26:49;6.03;;;1.90;;
69414;SDS011;56608;43.530;-5.652;2023-04-24T03:27:50;6.50;;;2.00;;
69414;SDS011;56608;43.530;-5.652;2023-04-24T03:28:52;5.65;;;2.12;;
69414;SDS011;56608;43.530;-5.652;2023-04-24T03:29:53;5.93;;;1.70;;
69414;SDS011;56608;43.530;-5.652;2023-04-24T03:30:56;6.75;;;2.20;;
69414;SDS011;56608;43.530;-5.652;2023-04-24T03:31:57;8.52;;;1.98;;
69414;SDS011;56608;43.530;-5.652;2023-04-24T03:32:59;4.05;;;1.60;;
69414;SDS011;56608;43.530;-5.652;2023-04-24T03:34:00;6.78;;;1.70;;
69414;SDS011;56608;43.530;-5.652;2023-04-24T03:35:02;5.03;;;2.12;;
69414;SDS011;56608;43.530;-5.652;2023-04-24T03:36:04;7.20;;;1.80;;
69414;SDS011;56608;43.530;-5.652;2023-04-24T03:37:05;8.05;;;2.45;;
69414;SDS011;56608;43.530;-5.652;2023-04-24T03:38:07;7.03;;;2.00;;
69414;SDS011;56608;43.530;-5.652;2023-04-24T03:39:08;4.22;;;1.62;;
69414;SDS011;56608;43.530;-5.652;2023-04-24T03:40:09;6.00;;;1.90;;
69414;SDS011;56608;43.530;-5.652;2023-04-24T03:41:11;5.55;;;1.90;;
69414;SDS011;56608;43.530;-5.652;2023-04-24T03:42:12;6.55;;;1.73;;
69414;SDS011;56608;43.530;-5.652;2023-04-24T03:43:14;6.53;;;1.92;;
69414;SDS011;56608;43.530;-5.652;2023-04-24T03:44:15;6.87;;;1.80;;
69414;SDS011;56608;43.530;-5.652;2023-04-24T03:45:16;6.15;;;2.10;;
69414;SDS011;56608;43.530;-5.652;2023-04-24T03:46:18;5.60;;;2.00;;
69414;SDS011;56608;43.530;-5.652;2023-04-24T03:47:19;7.62;;;2.78;;
69414;SDS011;56608;43.530;-5.652;2023-04-24T03:48:21;5.35;;;1.90;;
69414;SDS011;56608;43.530;-5.652;2023-04-24T03:49:22;8.20;;;2.10;;
69414;SDS011;56608;43.530;-5.652;2023-04-24T03:50:22;4.35;;;1.85;;
69414;SDS011;56608;43.530;-5.652;2023-04-24T03:51:24;5.05;;;1.70;;
69414;SDS011;56608;43.530;-5.652;2023-04-24T03:52:26;6.15;;;2.10;;
69414;SDS011;56608;43.530;-5.652;2023-04-24T03:53:27;6.37;;;1.98;;
69414;SDS011;56608;43.530;-5.652;2023-04-24T03:54:29;3.33;;;1.55;;
69414;SDS011;56608;43.530;-5.652;2023-04-24T03:55:29;6.23;;;1.97;;
69414;SDS011;56608;43.530;-5.652;2023-04-24T03:56:31;4.50;;;2.05;;
69414;SDS011;56608;43.530;-5.652;2023-04-24T03:57:32;3.65;;;1.70;;
69414;SDS011;56608;43.530;-5.652;2023-04-24T03:58:34;3.03;;;1.48;;
69414;SDS011;56608;43.530;-5.652;2023-04-24T04:00:36;4.60;;;1.80;;
69414;SDS011;56608;43.530;-5.652;2023-04-24T04:01:38;5.35;;;2.10;;
69414;SDS011;56608;43.530;-5.652;2023-04-24T04:02:40;7.10;;;2.55;;
69414;SDS011;56608;43.530;-5.652;2023-04-24T04:03:42;6.35;;;2.22;;
69414;SDS011;56608;43.530;-5.652;2023-04-24T04:04:43;3.50;;;1.80;;
69414;SDS011;56608;43.530;-5.652;2023-04-24T04:05:44;5.20;;;1.98;;
69414;SDS011;56608;43.530;-5.652;2023-04-24T04:06:46;3.62;;;1.73;;
69414;SDS011;56608;43.530;-5.652;2023-04-24T04:07:47;3.55;;;1.80;;
69414;SDS011;56608;43.530;-5.652;2023-04-24T04:08:49;3.53;;;1.73;;
69414;SDS011;56608;43.530;-5.652;2023-04-24T04:09:49;5.00;;;2.00;;
69414;SDS011;56608;43.530;-5.652;2023-04-24T04:10:51;5.30;;;2.00;;
69414;SDS011;56608;43.530;-5.652;2023-04-24T04:11:52;4.65;;;1.95;;
69414;SDS011;56608;43.530;-5.652;2023-04-24T04:12:54;5.85;;;2.35;;
69414;SDS011;56608;43.530;-5.652;2023-04-24T04:13:55;3.05;;;1.52;;
69414;SDS011;56608;43.530;-5.652;2023-04-24T04:15:58;5.72;;;1.70;;
69414;SDS011;56608;43.530;-5.652;2023-04-24T04:17:00;2.20;;;1.50;;
69414;SDS011;56608;43.530;-5.652;2023-04-24T04:18:01;6.47;;;1.90;;
69414;SDS011;56608;43.530;-5.652;2023-04-24T04:20:04;4.25;;;1.90;;
69414;SDS011;56608;43.530;-5.652;2023-04-24T04:21:10;3.73;;;1.67;;
69414;SDS011;56608;43.530;-5.652;2023-04-24T04:22:12;3.40;;;1.83;;
69414;SDS011;56608;43.530;-5.652;2023-04-24T04:23:13;4.93;;;1.73;;
69414;SDS011;56608;43.530;-5.652;2023-04-24T04:24:14;3.00;;;1.60;;
69414;SDS011;56608;43.530;-5.652;2023-04-24T04:25:16;5.68;;;1.92;;
69414;SDS011;56608;43.530;-5.652;2023-04-24T04:26:20;3.53;;;2.08;;
69414;SDS011;56608;43.530;-5.652;2023-04-24T04:27:22;5.27;;;2.07;;
69414;SDS011;56608;43.530;-5.652;2023-04-24T04:28:23;4.57;;;1.62;;
69414;SDS011;56608;43.530;-5.652;2023-04-24T04:29:25;5.63;;;2.03;;
69414;SDS011;56608;43.530;-5.652;2023-04-24T04:30:27;3.20;;;1.60;;
69414;SDS011;56608;43.530;-5.652;2023-04-24T04:31:30;3.27;;;1.50;;
69414;SDS011;56608;43.530;-5.652;2023-04-24T04:32:31;5.35;;;1.40;;
69414;SDS011;56608;43.530;-5.652;2023-04-24T04:33:34;4.37;;;1.50;;
69414;SDS011;56608;43.530;-5.652;2023-04-24T04:34:37;3.13;;;1.60;;
69414;SDS011;56608;43.530;-5.652;2023-04-24T04:35:38;3.78;;;1.67;;
69414;SDS011;56608;43.530;-5.652;2023-04-24T04:36:41;4.30;;;1.70;;
69414;SDS011;56608;43.530;-5.652;2023-04-24T04:37:43;3.58;;;1.52;;
69414;SDS011;56608;43.530;-5.652;2023-04-24T04:38:45;4.03;;;1.62;;
69414;SDS011;56608;43.530;-5.652;2023-04-24T04:39:46;2.40;;;1.30;;
69414;SDS011;56608;43.530;-5.652;2023-04-24T04:40:48;2.05;;;1.60;;
69414;SDS011;56608;43.530;-5.652;2023-04-24T04:41:49;2.20;;;1.50;;
69414;SDS011;56608;43.530;-5.652;2023-04-24T04:42:51;4.50;;;1.73;;
69414;SDS011;56608;43.530;-5.652;2023-04-24T04:43:54;4.85;;;1.80;;
69414;SDS011;56608;43.530;-5.652;2023-04-24T04:44:55;3.10;;;1.80;;
69414;SDS011;56608;43.530;-5.652;2023-04-24T04:45:58;2.73;;;1.63;;
69414;SDS011;56608;43.530;-5.652;2023-04-24T04:46:58;3.87;;;1.70;;
69414;SDS011;56608;43.530;-5.652;2023-04-24T04:48:01;3.65;;;2.00;;
69414;SDS011;56608;43.530;-5.652;2023-04-24T04:49:04;8.40;;;3.00;;
69414;SDS011;56608;43.530;-5.652;2023-04-24T04:50:05;7.70;;;2.90;;
69414;SDS011;56608;43.530;-5.652;2023-04-24T04:52:08;5.97;;;2.47;;
69414;SDS011;56608;43.530;-5.652;2023-04-24T04:53:10;4.00;;;1.60;;
69414;SDS011;56608;43.530;-5.652;2023-04-24T04:54:12;3.10;;;1.48;;
69414;SDS011;56608;43.530;-5.652;2023-04-24T04:55:13;4.37;;;1.48;;
69414;SDS011;56608;43.530;-5.652;2023-04-24T04:56:15;2.72;;;1.20;;
69414;SDS011;56608;43.530;-5.652;2023-04-24T04:57:17;3.47;;;1.27;;
69414;SDS011;56608;43.530;-5.652;2023-04-24T04:58:18;2.80;;;1.20;;
69414;SDS011;56608;43.530;-5.652;2023-04-24T04:59:20;1.90;;;1.20;;
69414;SDS011;56608;43.530;-5.652;2023-04-24T05:00:21;2.80;;;1.50;;
69414;SDS011;56608;43.530;-5.652;2023-04-24T05:01:26;3.25;;;1.00;;
69414;SDS011;56608;43.530;-5.652;2023-04-24T05:02:28;3.95;;;1.50;;
69414;SDS011;56608;43.530;-5.652;2023-04-24T05:03:29;2.15;;;1.27;;
69414;SDS011;56608;43.530;-5.652;2023-04-24T05:04:31;4.40;;;1.50;;
69414;SDS011;56608;43.530;-5.652;2023-04-24T05:05:32;5.37;;;1.60;;
69414;SDS011;56608;43.530;-5.652;2023-04-24T05:06:34;2.85;;;1.50;;
69414;SDS011;56608;43.530;-5.652;2023-04-24T05:07:35;3.33;;;1.55;;
69414;SDS011;56608;43.530;-5.652;2023-04-24T05:08:36;4.05;;;1.42;;
69414;SDS011;56608;43.530;-5.652;2023-04-24T05:09:37;2.57;;;1.60;;
69414;SDS011;56608;43.530;-5.652;2023-04-24T05:10:39;2.15;;;1.60;;
69414;SDS011;56608;43.530;-5.652;2023-04-24T05:11:40;6.10;;;1.95;;
69414;SDS011;56608;43.530;-5.652;2023-04-24T05:12:42;4.20;;;1.40;;
69414;SDS011;56608;43.530;-5.652;2023-04-24T05:13:43;2.65;;;1.55;;
69414;SDS011;56608;43.530;-5.652;2023-04-24T05:14:43;6.05;;;2.10;;
69414;SDS011;56608;43.530;-5.652;2023-04-24T05:15:45;3.30;;;1.80;;
69414;SDS011;56608;43.530;-5.652;2023-04-24T05:16:47;4.68;;;1.60;;
69414;SDS011;56608;43.530;-5.652;2023-04-24T05:17:48;2.87;;;1.77;;
69414;SDS011;56608;43.530;-5.652;2023-04-24T05:18:50;4.15;;;1.65;;
69414;SDS011;56608;43.530;-5.652;2023-04-24T05:19:52;4.30;;;1.80;;
69414;SDS011;56608;43.530;-5.652;2023-04-24T05:20:53;3.58;;;1.50;;
69414;SDS011;56608;43.530;-5.652;2023-04-24T05:21:55;3.65;;;1.75;;
69414;SDS011;56608;43.530;-5.652;2023-04-24T05:22:56;3.55;;;1.33;;
69414;SDS011;56608;43.530;-5.652;2023-04-24T05:23:56;4.40;;;1.80;;
69414;SDS011;56608;43.530;-5.652;2023-04-24T05:24:58;3.95;;;1.50;;
69414;SDS011;56608;43.530;-5.652;2023-04-24T05:26:00;2.75;;;1.50;;
69414;SDS011;56608;43.530;-5.652;2023-04-24T05:27:02;3.95;;;1.70;;
69414;SDS011;56608;43.530;-5.652;2023-04-24T05:28:05;3.55;;;1.50;;
69414;SDS011;56608;43.530;-5.652;2023-04-24T05:29:06;2.92;;;1.90;;
69414;SDS011;56608;43.530;-5.652;2023-04-24T05:30:08;6.50;;;1.90;;
69414;SDS011;56608;43.530;-5.652;2023-04-24T05:31:10;1.85;;;1.50;;
69414;SDS011;56608;43.530;-5.652;2023-04-24T05:32:13;2.65;;;1.70;;
69414;SDS011;56608;43.530;-5.652;2023-04-24T05:33:14;3.75;;;1.50;;
69414;SDS011;56608;43.530;-5.652;2023-04-24T05:34:16;3.25;;;1.50;;
69414;SDS011;56608;43.530;-5.652;2023-04-24T05:35:17;2.80;;;1.52;;
69414;SDS011;56608;43.530;-5.652;2023-04-24T05:36:19;5.35;;;1.90;;
69414;SDS011;56608;43.530;-5.652;2023-04-24T05:37:21;5.80;;;2.00;;
69414;SDS011;56608;43.530;-5.652;2023-04-24T05:38:22;1.90;;;1.60;;
69414;SDS011;56608;43.530;-5.652;2023-04-24T05:39:24;4.47;;;1.90;;
69414;SDS011;56608;43.530;-5.652;2023-04-24T05:41:27;7.40;;;3.25;;
69414;SDS011;56608;43.530;-5.652;2023-04-24T05:42:28;3.62;;;2.50;;
69414;SDS011;56608;43.530;-5.652;2023-04-24T05:43:29;5.28;;;2.60;;
69414;SDS011;56608;43.530;-5.652;2023-04-24T05:44:31;4.23;;;2.50;;
69414;SDS011;56608;43.530;-5.652;2023-04-24T05:45:32;4.47;;;2.60;;
69414;SDS011;56608;43.530;-5.652;2023-04-24T05:46:36;4.95;;;2.50;;
69414;SDS011;56608;43.530;-5.652;2023-04-24T05:47:37;4.10;;;2.85;;
69414;SDS011;56608;43.530;-5.652;2023-04-24T05:48:38;6.65;;;2.72;;
69414;SDS011;56608;43.530;-5.652;2023-04-24T05:49:40;5.60;;;2.78;;
69414;SDS011;56608;43.530;-5.652;2023-04-24T05:50:41;4.50;;;3.10;;
69414;SDS011;56608;43.530;-5.652;2023-04-24T05:51:43;5.85;;;3.40;;
69414;SDS011;56608;43.530;-5.652;2023-04-24T05:52:44;5.30;;;2.60;;
69414;SDS011;56608;43.530;-5.652;2023-04-24T05:53:45;6.28;;;2.58;;
69414;SDS011;56608;43.530;-5.652;2023-04-24T05:54:47;6.47;;;2.60;;
69414;SDS011;56608;43.530;-5.652;2023-04-24T05:55:48;2.37;;;1.50;;
69414;SDS011;56608;43.530;-5.652;2023-04-24T05:56:50;2.03;;;1.45;;
69414;SDS011;56608;43.530;-5.652;2023-04-24T05:58:52;1.83;;;1.27;;
69414;SDS011;56608;43.530;-5.652;2023-04-24T05:59:54;5.72;;;1.42;;
69414;SDS011;56608;43.530;-5.652;2023-04-24T06:00:55;1.83;;;1.25;;
69414;SDS011;56608;43.530;-5.652;2023-04-24T06:01:58;2.00;;;1.45;;
69414;SDS011;56608;43.530;-5.652;2023-04-24T06:03:00;3.70;;;1.65;;
69414;SDS011;56608;43.530;-5.652;2023-04-24T06:04:02;4.15;;;1.95;;
69414;SDS011;56608;43.530;-5.652;2023-04-24T06:05:04;4.40;;;1.80;;
69414;SDS011;56608;43.530;-5.652;2023-04-24T06:06:06;3.78;;;1.80;;
69414;SDS011;56608;43.530;-5.652;2023-04-24T06:07:08;3.95;;;1.80;;
69414;SDS011;56608;43.530;-5.652;2023-04-24T06:08:09;1.75;;;1.40;;
69414;SDS011;56608;43.530;-5.652;2023-04-24T06:09:11;3.70;;;1.90;;
69414;SDS011;56608;43.530;-5.652;2023-04-24T06:10:13;3.65;;;1.75;;
69414;SDS011;56608;43.530;-5.652;2023-04-24T06:11:14;6.50;;;1.90;;
69414;SDS011;56608;43.530;-5.652;2023-04-24T06:12:15;2.50;;;1.40;;
69414;SDS011;56608;43.530;-5.652;2023-04-24T06:13:16;2.80;;;1.60;;
69414;SDS011;56608;43.530;-5.652;2023-04-24T06:14:18;3.20;;;1.75;;
69414;SDS011;56608;43.530;-5.652;2023-04-24T06:15:20;3.45;;;1.60;;
69414;SDS011;56608;43.530;-5.652;2023-04-24T06:16:21;2.55;;;1.73;;
69414;SDS011;56608;43.530;-5.652;2023-04-24T06:17:23;5.67;;;2.03;;
69414;SDS011;56608;43.530;-5.652;2023-04-24T06:18:24;2.80;;;1.45;;
69414;SDS011;56608;43.530;-5.652;2023-04-24T06:19:25;4.87;;;1.62;;
69414;SDS011;56608;43.530;-5.652;2023-04-24T06:20:27;3.45;;;1.58;;